Terminal Aerodrome Forecast
Issued by NWS

Home | Current Version | Previous Version | Text Only | Print | Product List | Glossary On
Versions: 1 2 3 4 5 6 7 8 9 10 11 12
000
FTUS45 KRIW 220500
TAFCPR
TAF
KCPR 220523Z 2206/2306 VRB06KT P6SM BKN250
     FM220800 20008KT P6SM SCT100 BKN250
     FM221500 20014G22KT P6SM SCT080 BKN150
     FM222000 21024G34KT P6SM VCSH SCT080 BKN100
     FM230300 21020G30KT P6SM SCT080 BKN120=

USA.gov is the U.S. government's official web portal to all federal, state and local government web resources and services.